x

Bw Pioneer Buoy - Walker Ridge 249 (42360) Wave Buoy

8:00am - Wed 26th Nov 2014 All times are UTC.

  • Sig Wave height 9.8ft
  • Peak Period 8s
  • Wind
    31mph, 43mph gusts
  • Sea Temp 76°f
  • Air Temp 65°f
  • Sea Pressure 1021.8mb

More Historic Weather Station data

Upgrade to MSW Pro to gain access to the past 30 days of data for over 8000 Wavebouys and Weather Stations around the globe.

Join Pro

Comparision Forecast

View Surf forecast
   
Wed 11/26 8:00am 10ft 8s 31 43 mph 1021.8mb 76f 65f
7:00am 9ft 8s 29 40 mph 1021.9mb 76f 65f
6:00am 10ft 8s 31 45 mph 1022mb 76f 65f
5:00am 10ft 8s 31 40 mph 1021.8mb 76f 66f
4:00am 9.5ft 8s 34 45 mph 1021.3mb 76f 66f
3:00am 10.5ft 8s 31 47 mph 1020.8mb 76f 67f
2:00am 10.5ft 8s 31 43 mph 1020.4mb 76f 67f
1:00am 11ft 8s 34 47 mph 1019.7mb 76f 65f
12:00am 10ft 8s 36 47 mph 1019.9mb 76f 65f
Tue 11/25 11:00pm 11ft 8s 40 51 mph 1018.6mb 76f 65f
10:00pm 12ft 8s 34 47 mph 1018.3mb 77f 65f
9:00pm 11ft 8s 40 54 mph 1017.1mb 77f 65f
8:00pm 10ft 8s 38 49 mph 1015.8mb 77f 67f
7:00pm 10ft 8s 34 45 mph 1016.3mb 77f 66f
6:00pm 10ft 7s 34 40 mph 1016mb 77f 67f
5:00pm 9ft 8s 34 43 mph 1016.5mb 77f 67f
4:00pm 9ft 8s 29 40 mph 1016.9mb 77f 67f
3:00pm 8.5ft 7s 31 43 mph 1016.3mb 77f 69f
2:00pm 9ft 7s 34 45 mph 1015.6mb 77f 69f
1:00pm 9ft 7s 31 40 mph 1015.6mb 77f 69f
12:00pm 8ft 6s 31 38 mph 1015.2mb 77f 70f
11:00am 7ft 6s 34 45 mph 1014.4mb 77f 71f
10:00am 6.5ft 5s 34 40 mph 1014.3mb 77f 71f
9:00am 5.5ft 5s 31 43 mph 1014.3mb 77f 71f
8:00am 5ft 4s 31 40 mph 1013.9mb 77f 72f
7:00am 5ft 6s 27 36 mph 1014.3mb 77f 74f
6:00am 4.5ft 5s 22 29 mph 1014.3mb - 74f
5:00am 4.5ft 6s 22 27 mph 1013.9mb 77f 74f
4:00am 4.5ft 6s 22 29 mph 1014.2mb 77f 74f
3:00am 4.5ft 6s 20 27 mph 1013.8mb 77f 74f
2:00am 4.5ft 5s 22 27 mph 1013.5mb 77f 74f
1:00am 4.5ft 6s 22 27 mph 1013.1mb 77f 74f
12:00am 4.5ft 6s 22 27 mph 1012.4mb - 74f
Mon 11/24 11:00pm 4ft 6s 27 31 mph 1011.6mb 77f 74f
10:00pm 3.5ft 6s 27 34 mph 1010.9mb 77f 74f
9:00pm 3.5ft 7s 9 13 mph 1010.8mb 77f 77f
8:00pm 4ft 6s 9 13 mph 1010.4mb 77f 77f
7:00pm 4ft 7s 9 13 mph 1010.6mb 77f 77f
6:00pm 4.5ft 6s 11 13 mph 1011.5mb 78f 77f
5:00pm 4ft 6s 9 11 mph 1012.1mb 78f 77f
4:00pm 4ft 6s 9 11 mph 1012.1mb 78f 77f
3:00pm 4.5ft 6s 11 13 mph 1011.7mb 78f 77f
2:00pm 4.5ft 6s 11 13 mph 1011.3mb 78f 77f
1:00pm 4.5ft 6s 11 13 mph 1010.9mb 78f 77f
12:00pm 4.5ft 6s 9 11 mph 1010.4mb 78f 77f
11:00am 5ft 6s 11 16 mph 1010mb 78f 76f
10:00am 4.5ft 6s 9 13 mph 1009.7mb 78f 76f
9:00am 5ft 6s 11 16 mph 1009.4mb 78f 77f
8:00am 5.5ft 6s 11 18 mph 1009.4mb 78f 77f
7:00am 5.5ft 6s 18 22 mph 1009.1mb 78f 77f
6:00am 6ft 7s 20 27 mph 1008.8mb 78f 77f
5:00am 5.5ft 6s 22 29 mph 1008.9mb 78f 77f
4:00am 5ft 7s 22 29 mph 1008.8mb 78f 77f
3:00am 5ft 6s 25 31 mph 1008.2mb 78f 77f
2:00am 5ft 6s 25 29 mph 1008.1mb 78f 77f
1:00am 5ft 6s 20 29 mph 1007.6mb 78f 76f
12:00am 5.5ft 6s 20 25 mph 1007.2mb 78f 76f
Sun 11/23 11:00pm 5ft 6s 18 25 mph 1007.2mb 78f 75f
10:00pm 5ft 6s 16 20 mph 1007.6mb 78f 73f
9:00pm 6ft 9s 13 20 mph 1007.6mb 78f 72f
8:00pm 6.5ft 9s 11 16 mph 1008mb 78f 71f
7:00pm 6.5ft 5s 2 4 mph 1009.2mb 77f 70f
6:00pm 6.5ft 7s 9 18 mph 1010.3mb 77f 69f
5:00pm 6.5ft 7s 18 27 mph 1011.4mb 77f 70f
4:00pm 6.5ft 9s 20 29 mph 1012.1mb 78f 69f
3:00pm 6ft 8s 18 29 mph 1012mb 78f 71f
2:00pm 6.5ft 9s 31 45 mph 1011.4mb 78f 69f
1:00pm 6.5ft 5s 29 38 mph 1009.8mb 78f 77f
12:00pm 6.5ft 8s 31 43 mph 1008.6mb 78f 77f
11:00am 6.5ft 8s 31 38 mph 1008.3mb 78f 76f
10:00am 6ft 8s 29 38 mph 1008.3mb 78f 76f
9:00am 6.5ft 8s 27 36 mph 1008.2mb 78f 76f
8:00am 6.5ft 8s 27 34 mph 1008.7mb 78f 76f
7:00am 5.5ft 9s 20 25 mph 1009.9mb 78f 76f
6:00am 6.5ft 8s 18 22 mph 1011.1mb 78f 76f
5:00am 5.5ft 9s 13 18 mph 1012.5mb 78f 76f
4:00am 6.5ft 8s 16 20 mph 1013.3mb 78f 77f
3:00am 7ft 8s 18 25 mph 1013.3mb 78f 77f
2:00am 6.5ft 8s 25 34 mph 1012.7mb 78f 77f
1:00am 6.5ft 8s 27 34 mph 1013.1mb 78f 77f
12:00am 6ft 9s 25 31 mph 1012.6mb 78f 76f
Sat 11/22 11:00pm 6ft 8s 27 34 mph 1013mb 78f 76f
10:00pm 6ft 9s 9 13 mph 1015.5mb 78f 76f
9:00pm 6.5ft 9s 13 18 mph 1015.6mb 77f 76f
8:00pm 6ft 9s 13 18 mph 1016mb 77f 76f
7:00pm 6ft 7s 16 20 mph 1016.8mb 77f 76f
6:00pm 6.5ft 8s 20 25 mph 1017.9mb 77f 76f
5:00pm 7ft 8s 18 25 mph 1019.4mb 77f 77f
4:00pm 7ft 8s 18 22 mph 1020.5mb 77f 77f
3:00pm 7ft 8s 18 25 mph 1020.8mb 77f 77f
2:00pm 6.5ft 8s 22 29 mph 1020.3mb 77f 76f
1:00pm 7.5ft 8s 25 29 mph 1019.8mb 77f 76f
12:00pm 6.5ft 6s 22 29 mph 1019.2mb 77f 76f
11:00am 5.5ft 7s 22 29 mph 1019mb 77f 76f